Time;durP1;ratioP1;P1;durP2;ratioP2;P2;SDS_P1;SDS_P2;PMS_P1;PMS_P2;Temp;Humidity;BMP_temperature;BMP_pressure;BME280_temperature;BME280_humidity;BME280_pressure;Samples;Min_cycle;Max_cycle;Signal;HPM_P1;HPM_P2
2023/09/29 00:01:33;;;;;;;5.77;5.17;;;14.10;99.90;;;;;;5070788;28;20280;-79
2023/09/29 00:04:01;;;;;;;6.67;6.07;;;14.00;99.90;;;;;;5083423;28;20556;-78
2023/09/29 00:06:28;;;;;;;8.07;7.43;;;13.90;99.90;;;;;;5071201;28;20652;-78
2023/09/29 00:08:55;;;;;;;4.60;3.67;;;13.90;99.90;;;;;;5086884;28;20199;-78
2023/09/29 00:11:22;;;;;;;7.60;6.93;;;13.80;99.90;;;;;;5090204;28;20643;-78
2023/09/29 00:13:48;;;;;;;7.87;7.27;;;13.80;99.90;;;;;;5072965;28;20231;-79
2023/09/29 00:16:16;;;;;;;5.70;5.20;;;13.80;99.90;;;;;;5081677;28;20601;-78
2023/09/29 00:18:43;;;;;;;8.20;7.50;;;13.80;99.90;;;;;;5085256;28;20201;-78
2023/09/29 00:21:11;;;;;;;7.60;7.10;;;13.80;99.90;;;;;;5084325;28;20312;-78
2023/09/29 00:23:38;;;;;;;8.60;7.90;;;13.80;99.90;;;;;;5086484;28;20625;-78
2023/09/29 00:26:05;;;;;;;8.90;8.20;;;13.80;99.90;;;;;;5087364;28;20203;-78
2023/09/29 00:28:32;;;;;;;8.10;7.37;;;13.80;99.90;;;;;;5090780;28;20204;-79
2023/09/29 00:31:00;;;;;;;8.23;7.53;;;13.80;99.90;;;;;;5087632;28;20214;-78
2023/09/29 00:33:28;;;;;;;8.80;8.07;;;13.80;99.90;;;;;;5074837;28;20230;-78
2023/09/29 00:35:55;;;;;;;8.13;7.53;;;13.80;99.90;;;;;;5083999;28;20224;-78
2023/09/29 00:38:24;;;;;;;8.70;8.00;;;13.80;99.90;;;;;;5082379;28;20194;-78
2023/09/29 00:40:51;;;;;;;8.10;7.50;;;13.70;99.90;;;;;;5087557;28;20194;-78
2023/09/29 00:43:18;;;;;;;8.57;7.83;;;13.70;99.90;;;;;;5082407;28;20222;-78
2023/09/29 00:45:47;;;;;;;8.10;7.40;;;13.70;99.90;;;;;;5087649;28;20195;-78
2023/09/29 00:48:15;;;;;;;7.97;7.47;;;13.60;99.90;;;;;;5088804;28;20210;-79
2023/09/29 00:50:44;;;;;;;8.37;7.70;;;13.50;99.90;;;;;;5078432;28;20217;-78
2023/09/29 00:53:15;;;;;;;8.80;7.97;;;13.50;99.90;;;;;;5082895;28;20225;-78
2023/09/29 00:55:45;;;;;;;10.17;9.23;;;13.50;99.90;;;;;;5088289;28;20622;-78
2023/09/29 00:58:14;;;;;;;8.30;7.60;;;13.50;99.90;;;;;;5086679;28;20199;-78
2023/09/29 01:00:41;;;;;;;8.27;7.67;;;13.60;99.90;;;;;;5087822;28;20191;-78
2023/09/29 01:03:10;;;;;;;8.20;7.47;;;13.60;99.90;;;;;;5080190;28;20226;-78
2023/09/29 01:05:39;;;;;;;8.13;7.53;;;13.60;99.90;;;;;;5084839;28;20218;-78
2023/09/29 01:08:09;;;;;;;8.17;7.53;;;13.60;99.90;;;;;;5072415;28;20207;-78
2023/09/29 01:10:36;;;;;;;8.63;7.93;;;13.50;99.90;;;;;;5089889;28;20228;-78
2023/09/29 01:13:03;;;;;;;7.80;7.20;;;13.50;99.90;;;;;;5086068;28;20236;-78
2023/09/29 01:15:32;;;;;;;8.03;7.43;;;13.50;99.90;;;;;;5070754;28;20201;-78
2023/09/29 01:17:59;;;;;;;8.23;7.57;;;13.40;99.90;;;;;;5085444;28;20654;-78
2023/09/29 01:20:28;;;;;;;8.33;7.63;;;13.40;99.90;;;;;;5093162;28;20667;-78
2023/09/29 01:22:56;;;;;;;9.00;8.10;;;13.40;99.90;;;;;;5090290;28;20718;-78
2023/09/29 01:25:25;;;;;;;8.67;7.87;;;13.30;99.90;;;;;;5087420;28;20201;-78
2023/09/29 01:27:54;;;;;;;8.33;7.73;;;13.30;99.90;;;;;;5085999;28;20208;-78
2023/09/29 01:30:21;;;;;;;8.40;7.77;;;13.20;99.90;;;;;;5089618;28;20214;-78
2023/09/29 01:32:50;;;;;;;8.60;8.00;;;13.20;99.90;;;;;;5090176;28;20251;-78
2023/09/29 01:35:18;;;;;;;8.63;8.00;;;13.20;99.90;;;;;;5089489;28;20561;-78
2023/09/29 01:37:46;;;;;;;8.63;7.97;;;13.20;99.90;;;;;;5090898;28;20277;-78
2023/09/29 01:40:14;;;;;;;8.80;8.00;;;13.20;99.90;;;;;;5080471;28;20187;-78
2023/09/29 01:42:43;;;;;;;8.70;8.10;;;13.20;99.90;;;;;;5074254;28;20215;-78
2023/09/29 01:45:11;;;;;;;8.40;7.70;;;13.20;99.90;;;;;;5073027;28;20195;-78
2023/09/29 01:47:38;;;;;;;8.63;7.83;;;13.30;99.90;;;;;;5081189;28;20202;-78
2023/09/29 01:50:07;;;;;;;8.70;8.10;;;13.20;99.90;;;;;;5082379;28;20204;-78
2023/09/29 01:52:34;;;;;;;8.97;8.27;;;13.20;99.90;;;;;;5073135;28;20241;-78
2023/09/29 01:55:03;;;;;;;8.70;8.00;;;13.20;99.90;;;;;;5089283;28;20698;-79
2023/09/29 01:57:30;;;;;;;8.67;8.07;;;13.20;99.90;;;;;;5087831;28;20273;-79
2023/09/29 01:59:58;;;;;;;9.43;8.60;;;13.20;99.90;;;;;;5079295;28;20286;-79
2023/09/29 02:02:25;;;;;;;9.17;8.27;;;13.20;99.90;;;;;;5090568;28;20573;-77
2023/09/29 02:04:52;;;;;;;9.13;8.43;;;13.10;99.90;;;;;;5086361;28;20216;-78
2023/09/29 02:07:19;;;;;;;9.30;8.60;;;13.10;99.90;;;;;;5091864;28;20206;-78
2023/09/29 02:09:46;;;;;;;9.57;8.80;;;13.10;99.90;;;;;;5089339;28;20194;-78
2023/09/29 02:12:14;;;;;;;9.60;8.73;;;13.10;99.90;;;;;;5085520;28;20222;-78
2023/09/29 02:14:41;;;;;;;9.30;8.40;;;13.10;99.90;;;;;;5086215;28;20201;-78
2023/09/29 02:17:09;;;;;;;9.13;8.43;;;13.20;99.90;;;;;;5085117;28;20201;-78
2023/09/29 02:19:36;;;;;;;9.23;8.60;;;13.20;99.90;;;;;;5090387;28;20334;-78
2023/09/29 02:22:04;;;;;;;9.43;8.63;;;13.20;99.90;;;;;;5089290;28;20640;-79
2023/09/29 02:24:33;;;;;;;9.40;8.70;;;13.20;99.90;;;;;;5077178;28;20672;-78
2023/09/29 02:27:00;;;;;;;10.00;9.00;;;13.20;99.90;;;;;;5085573;28;20222;-78
2023/09/29 02:29:27;;;;;;;10.53;9.53;;;13.10;99.90;;;;;;5075935;28;20672;-78
2023/09/29 02:31:56;;;;;;;9.97;9.17;;;13.10;99.90;;;;;;5088421;28;20221;-78
2023/09/29 02:34:25;;;;;;;9.80;9.10;;;13.00;99.90;;;;;;5086487;28;20252;-77
2023/09/29 02:36:52;;;;;;;9.67;8.87;;;13.00;99.90;;;;;;5079388;28;20681;-79
2023/09/29 02:39:19;;;;;;;10.03;9.13;;;13.00;99.90;;;;;;5088104;28;20209;-78
2023/09/29 02:41:46;;;;;;;10.67;9.77;;;13.00;99.90;;;;;;5091740;28;20221;-78
2023/09/29 02:44:13;;;;;;;9.77;8.97;;;13.00;99.90;;;;;;5092111;28;20243;-78
2023/09/29 02:46:40;;;;;;;10.20;9.40;;;12.90;99.90;;;;;;5087673;28;20632;-78
2023/09/29 02:49:09;;;;;;;9.70;9.00;;;12.90;99.90;;;;;;5084434;28;20581;-77
2023/09/29 02:51:37;;;;;;;9.10;8.40;;;12.90;99.90;;;;;;5086077;28;20214;-78
2023/09/29 02:54:10;;;;;;;9.23;8.53;;;12.90;99.90;;;;;;5087171;28;20209;-81
2023/09/29 02:56:37;;;;;;;9.63;8.93;;;12.80;99.90;;;;;;5068449;28;20281;-83
2023/09/29 02:59:06;;;;;;;9.47;8.77;;;12.80;99.90;;;;;;5071969;28;20194;-82
2023/09/29 03:01:34;;;;;;;9.10;8.40;;;12.80;99.90;;;;;;5073404;28;20209;-82
2023/09/29 03:04:01;;;;;;;9.90;9.10;;;12.70;99.90;;;;;;5070781;28;20202;-81
2023/09/29 03:06:27;;;;;;;9.87;9.00;;;12.70;99.90;;;;;;5073327;28;20222;-82
2023/09/29 03:08:58;;;;;;;9.13;8.53;;;12.60;99.90;;;;;;5072979;28;20210;-82
2023/09/29 03:11:26;;;;;;;9.20;8.50;;;12.60;99.90;;;;;;5070297;28;20685;-81
2023/09/29 03:13:54;;;;;;;9.50;8.80;;;12.60;99.90;;;;;;5070994;28;20206;-81
2023/09/29 03:16:21;;;;;;;9.67;8.97;;;12.50;99.90;;;;;;5072634;28;20198;-82
2023/09/29 03:18:48;;;;;;;9.30;8.60;;;12.50;99.90;;;;;;5076359;28;20275;-83
2023/09/29 03:21:15;;;;;;;10.37;9.67;;;12.50;99.90;;;;;;5076397;28;20194;-82
2023/09/29 03:23:45;;;;;;;10.23;9.53;;;12.50;99.90;;;;;;5070415;28;20312;-81
2023/09/29 03:26:16;;;;;;;9.87;9.17;;;12.50;99.90;;;;;;5068926;28;20301;-78
2023/09/29 03:28:43;;;;;;;10.50;9.70;;;12.40;99.90;;;;;;5082122;28;20209;-78
2023/09/29 03:31:10;;;;;;;9.67;8.97;;;12.40;99.90;;;;;;5078715;28;20307;-77
2023/09/29 03:33:38;;;;;;;9.70;8.90;;;12.40;99.90;;;;;;5084348;28;20209;-78
2023/09/29 03:36:05;;;;;;;9.30;8.60;;;12.30;99.90;;;;;;5090750;28;20196;-78
2023/09/29 03:38:32;;;;;;;9.77;9.07;;;12.30;99.90;;;;;;5079784;28;20660;-78
2023/09/29 03:40:59;;;;;;;10.00;9.20;;;12.30;99.90;;;;;;5082030;28;20194;-78
2023/09/29 03:43:27;;;;;;;9.50;8.80;;;12.30;99.90;;;;;;5081536;28;20356;-78
2023/09/29 03:45:54;;;;;;;9.73;9.03;;;12.30;99.90;;;;;;5081208;28;20289;-77
2023/09/29 03:48:21;;;;;;;10.03;9.33;;;12.30;99.90;;;;;;5084476;28;20194;-78
2023/09/29 03:50:49;;;;;;;10.17;9.37;;;12.30;99.90;;;;;;5090731;28;20573;-79
2023/09/29 03:53:17;;;;;;;10.40;9.60;;;12.20;99.90;;;;;;5084460;28;20221;-79
2023/09/29 03:55:44;;;;;;;9.80;9.10;;;12.20;99.90;;;;;;5090825;28;20202;-78
2023/09/29 03:58:12;;;;;;;10.23;9.33;;;12.20;99.90;;;;;;5080262;28;20564;-79
2023/09/29 04:00:40;;;;;;;10.30;9.50;;;12.10;99.90;;;;;;5075985;28;20198;-78
2023/09/29 04:03:08;;;;;;;9.73;9.03;;;12.10;99.90;;;;;;5088058;28;20222;-79
2023/09/29 04:05:35;;;;;;;9.10;8.50;;;12.10;99.90;;;;;;5091901;28;20227;-79
2023/09/29 04:08:03;;;;;;;9.27;8.57;;;12.10;99.90;;;;;;5088304;28;20210;-78
2023/09/29 04:10:30;;;;;;;9.47;8.77;;;12.10;99.90;;;;;;5096634;28;20279;-78
2023/09/29 04:12:56;;;;;;;8.80;8.10;;;12.10;99.90;;;;;;5074292;28;20226;-79
2023/09/29 04:15:25;;;;;;;8.63;7.93;;;12.10;99.90;;;;;;5085044;28;20205;-79
2023/09/29 04:17:53;;;;;;;8.27;7.67;;;12.10;99.90;;;;;;5090424;28;20198;-78
2023/09/29 04:20:19;;;;;;;8.60;8.00;;;12.10;99.90;;;;;;5089872;28;20230;-79
2023/09/29 04:22:46;;;;;;;9.40;8.70;;;12.10;99.90;;;;;;5089568;28;20217;-78
2023/09/29 04:25:13;;;;;;;9.40;8.70;;;12.10;99.90;;;;;;5090540;28;20196;-79
2023/09/29 04:27:41;;;;;;;9.90;9.10;;;12.10;99.90;;;;;;5094156;28;20557;-78
2023/09/29 04:30:09;;;;;;;9.80;9.10;;;12.10;99.90;;;;;;5091810;28;20208;-79
2023/09/29 04:32:36;;;;;;;9.20;8.50;;;12.10;99.90;;;;;;5086395;28;20247;-79
2023/09/29 04:35:06;;;;;;;9.33;8.63;;;12.10;99.90;;;;;;5089168;28;20655;-79
2023/09/29 04:37:32;;;;;;;9.20;8.47;;;12.10;99.90;;;;;;5087287;28;20232;-79
2023/09/29 04:39:59;;;;;;;9.43;8.73;;;12.10;99.90;;;;;;5084629;28;20275;-78
2023/09/29 04:42:26;;;;;;;9.43;8.67;;;12.10;99.90;;;;;;5089597;28;20221;-79
2023/09/29 04:44:53;;;;;;;9.77;9.07;;;12.10;99.90;;;;;;5075588;28;20197;-79
2023/09/29 04:47:20;;;;;;;10.83;10.13;;;12.20;99.90;;;;;;5094281;28;20566;-79
2023/09/29 04:49:49;;;;;;;9.83;9.10;;;12.20;99.90;;;;;;5084496;28;20623;-79
2023/09/29 04:52:17;;;;;;;9.27;8.67;;;12.30;99.90;;;;;;5088640;28;20311;-79
2023/09/29 04:54:44;;;;;;;8.87;8.17;;;12.30;99.90;;;;;;5087135;28;20279;-79
2023/09/29 04:57:11;;;;;;;9.20;8.40;;;12.40;99.90;;;;;;5091221;28;20660;-79
2023/09/29 04:59:38;;;;;;;10.50;9.80;;;12.40;99.90;;;;;;5090794;28;20614;-79
2023/09/29 05:02:05;;;;;;;8.60;8.00;;;12.40;99.90;;;;;;5081617;28;20221;-78
2023/09/29 05:04:32;;;;;;;4.67;3.90;;;12.50;99.90;;;;;;5093394;28;20200;-79
2023/09/29 05:06:59;;;;;;;6.10;5.57;;;12.50;99.90;;;;;;5090268;28;20209;-79
2023/09/29 05:09:27;;;;;;;7.17;6.60;;;12.50;99.90;;;;;;5071474;28;20258;-79
2023/09/29 05:11:54;;;;;;;4.37;3.97;;;12.50;99.90;;;;;;5091302;28;20223;-79
2023/09/29 05:14:21;;;;;;;11.83;10.90;;;12.50;99.90;;;;;;5082052;28;20206;-78
2023/09/29 05:16:49;;;;;;;10.50;9.70;;;12.50;99.90;;;;;;5090285;28;20578;-79
2023/09/29 05:19:16;;;;;;;10.37;9.67;;;12.40;99.90;;;;;;5089885;28;20200;-80
2023/09/29 05:21:43;;;;;;;10.87;9.97;;;12.40;99.90;;;;;;5093111;28;20193;-79
2023/09/29 05:24:10;;;;;;;10.27;9.47;;;12.40;99.90;;;;;;5090674;28;20231;-78
2023/09/29 05:26:38;;;;;;;11.40;10.47;;;12.40;99.90;;;;;;5088220;28;20184;-79
2023/09/29 05:29:05;;;;;;;10.53;9.73;;;12.30;99.90;;;;;;5087251;28;20583;-79
2023/09/29 05:31:32;;;;;;;10.90;10.00;;;12.30;99.90;;;;;;5072137;28;20699;-83
2023/09/29 05:33:59;;;;;;;10.50;9.70;;;12.30;99.90;;;;;;5073701;28;20624;-79
2023/09/29 05:36:27;;;;;;;10.47;9.70;;;12.40;99.90;;;;;;5081799;28;20205;-79
2023/09/29 05:38:54;;;;;;;10.70;10.00;;;12.30;99.90;;;;;;5076404;28;20194;-79
2023/09/29 05:41:20;;;;;;;10.80;9.90;;;12.40;99.90;;;;;;5075763;28;20612;-79
2023/09/29 05:43:48;;;;;;;11.27;10.37;;;12.40;99.90;;;;;;5074423;28;20212;-79
2023/09/29 05:46:15;;;;;;;10.80;9.90;;;12.50;99.90;;;;;;5075225;28;20204;-79
2023/09/29 05:48:42;;;;;;;10.60;9.80;;;12.50;99.90;;;;;;5093781;28;20194;-79
2023/09/29 05:51:09;;;;;;;7.40;6.70;;;12.60;99.90;;;;;;5090955;28;20860;-79
2023/09/29 05:53:36;;;;;;;8.83;8.23;;;12.60;99.90;;;;;;5082879;28;20240;-79
2023/09/29 05:56:08;;;;;;;4.43;4.03;;;12.70;99.90;;;;;;5087619;28;20200;-79
2023/09/29 05:58:35;;;;;;;4.47;4.07;;;12.80;99.90;;;;;;5087285;28;20200;-79
2023/09/29 06:01:10;;;;;;;6.73;4.40;;;12.80;99.90;;;;;;5092933;28;20197;-78
2023/09/29 06:03:37;;;;;;;5.57;4.40;;;13.00;99.90;;;;;;5090569;28;20273;-79
2023/09/29 06:06:04;;;;;;;5.17;4.07;;;13.10;99.90;;;;;;5086299;28;20195;-79
2023/09/29 06:08:31;;;;;;;4.53;3.90;;;13.30;99.90;;;;;;5094874;28;20202;-79
2023/09/29 06:10:58;;;;;;;6.80;6.30;;;13.40;99.90;;;;;;5091005;28;20304;-78
2023/09/29 06:13:25;;;;;;;4.93;4.20;;;13.50;99.90;;;;;;5095732;28;20225;-79
2023/09/29 06:15:52;;;;;;;4.17;3.77;;;13.70;99.90;;;;;;5094767;28;20200;-80
2023/09/29 06:18:20;;;;;;;4.50;3.90;;;13.80;99.90;;;;;;5091832;28;20244;-79
2023/09/29 06:20:47;;;;;;;9.43;8.73;;;13.90;99.90;;;;;;5092090;28;20194;-79
2023/09/29 06:23:15;;;;;;;5.70;4.30;;;14.10;99.90;;;;;;5090027;28;20264;-79
2023/09/29 06:25:42;;;;;;;3.93;3.53;;;14.30;99.90;;;;;;5094298;28;20187;-80
2023/09/29 06:28:09;;;;;;;5.67;5.07;;;14.40;99.90;;;;;;5085248;28;20195;-80
2023/09/29 06:30:36;;;;;;;4.47;3.90;;;14.60;99.90;;;;;;5097432;28;20574;-79
2023/09/29 06:33:03;;;;;;;5.47;4.97;;;14.80;99.90;;;;;;5093766;28;20226;-80
2023/09/29 06:35:31;;;;;;;5.40;4.60;;;14.90;99.90;;;;;;5091665;28;20208;-80
2023/09/29 06:37:58;;;;;;;4.90;4.40;;;15.00;99.90;;;;;;5091611;28;20576;-79
2023/09/29 06:40:24;;;;;;;6.97;6.00;;;15.20;99.90;;;;;;5089492;28;20201;-80
2023/09/29 06:42:51;;;;;;;7.60;6.10;;;15.40;99.90;;;;;;5072775;28;20214;-79
2023/09/29 06:45:18;;;;;;;5.10;4.23;;;15.60;99.90;;;;;;5089635;28;20208;-78
2023/09/29 06:47:46;;;;;;;7.00;4.80;;;15.80;99.90;;;;;;5093939;28;20200;-80
2023/09/29 06:50:12;;;;;;;9.10;8.30;;;16.00;99.90;;;;;;5093474;28;20255;-80
2023/09/29 06:52:40;;;;;;;4.77;4.00;;;16.20;99.90;;;;;;5092012;28;20211;-80
2023/09/29 06:55:08;;;;;;;10.40;9.50;;;16.40;99.90;;;;;;5091611;28;20198;-83
2023/09/29 06:57:35;;;;;;;9.03;8.33;;;16.60;99.90;;;;;;5091910;28;20208;-84
2023/09/29 07:00:03;;;;;;;5.33;4.13;;;16.80;99.90;;;;;;5081312;28;20197;-81
2023/09/29 07:02:33;;;;;;;9.87;8.97;;;17.10;99.90;;;;;;5094080;28;20217;-83
2023/09/29 07:05:00;;;;;;;8.67;7.97;;;17.20;99.90;;;;;;5084196;28;20204;-82
2023/09/29 07:07:27;;;;;;;9.63;8.73;;;17.30;99.90;;;;;;5068885;28;20195;-78
2023/09/29 07:09:55;;;;;;;9.70;9.00;;;17.30;99.90;;;;;;5084395;28;20558;-78
2023/09/29 07:12:22;;;;;;;8.50;7.80;;;17.40;99.90;;;;;;5090252;28;20218;-78
2023/09/29 07:14:50;;;;;;;10.03;9.17;;;17.40;99.90;;;;;;5096426;28;20190;-79
2023/09/29 07:17:17;;;;;;;4.63;4.00;;;17.40;99.90;;;;;;5093677;28;20213;-78
2023/09/29 07:19:45;;;;;;;6.13;4.47;;;17.50;99.90;;;;;;5091596;28;20217;-77
2023/09/29 07:22:12;;;;;;;5.90;4.17;;;17.50;99.90;;;;;;5086346;28;20585;-77
2023/09/29 07:24:40;;;;;;;5.43;3.77;;;17.50;99.90;;;;;;5070365;28;20194;-76
2023/09/29 07:27:08;;;;;;;7.23;6.57;;;17.60;99.90;;;;;;5087686;28;20197;-76
2023/09/29 07:29:35;;;;;;;9.37;8.47;;;17.60;99.90;;;;;;5085265;28;20240;-77
2023/09/29 07:32:02;;;;;;;8.43;7.73;;;17.70;99.90;;;;;;5089579;28;20697;-77
2023/09/29 07:34:31;;;;;;;10.67;9.77;;;17.80;99.90;;;;;;5092725;28;20201;-76
2023/09/29 07:36:58;;;;;;;6.23;4.40;;;17.90;99.90;;;;;;5087495;28;20212;-77
2023/09/29 07:39:25;;;;;;;5.63;4.10;;;17.90;99.90;;;;;;5087213;28;20605;-78
2023/09/29 07:41:52;;;;;;;7.80;4.73;;;18.00;99.90;;;;;;5094599;28;20644;-77
2023/09/29 07:44:20;;;;;;;9.00;8.20;;;18.20;99.90;;;;;;5090089;28;20549;-77
2023/09/29 07:46:52;;;;;;;6.23;4.27;;;18.30;99.90;;;;;;5088382;28;20202;-77
2023/09/29 07:49:20;;;;;;;7.70;6.90;;;18.50;99.90;;;;;;5087383;28;20258;-77
2023/09/29 07:51:47;;;;;;;10.40;9.50;;;18.80;99.90;;;;;;5081255;28;20229;-78
2023/09/29 07:54:15;;;;;;;6.97;5.33;;;19.10;99.90;;;;;;5081447;28;20232;-77
2023/09/29 07:56:47;;;;;;;4.87;3.83;;;19.30;99.90;;;;;;5078991;28;20660;-78
2023/09/29 07:59:14;;;;;;;8.83;4.43;;;19.40;99.90;;;;;;5071780;28;20197;-77
2023/09/29 08:01:48;;;;;;;7.30;4.60;;;19.50;99.90;;;;;;5080014;28;20552;-77
2023/09/29 08:04:15;;;;;;;6.37;4.00;;;19.60;99.90;;;;;;5084755;28;20193;-77
2023/09/29 08:06:41;;;;;;;5.67;4.30;;;19.70;99.90;;;;;;5087323;28;20201;-78
2023/09/29 08:09:09;;;;;;;9.93;9.03;;;19.80;99.90;;;;;;5093101;28;20209;-78
2023/09/29 08:11:36;;;;;;;9.60;8.90;;;19.90;99.90;;;;;;5089395;28;20229;-78
2023/09/29 08:14:04;;;;;;;9.77;9.07;;;20.00;99.90;;;;;;5098257;22;20225;-76
2023/09/29 08:16:30;;;;;;;9.77;8.97;;;20.20;99.90;;;;;;5090599;28;20253;-75
2023/09/29 08:18:59;;;;;;;9.33;8.33;;;20.20;99.90;;;;;;5087055;28;20193;-75
2023/09/29 08:21:26;;;;;;;7.53;5.97;;;20.30;99.90;;;;;;5085563;28;20280;-75
2023/09/29 08:23:53;;;;;;;10.00;9.20;;;20.30;99.90;;;;;;5088498;28;20213;-78
2023/09/29 08:26:20;;;;;;;9.70;9.00;;;20.30;99.90;;;;;;5091770;28;20205;-78
2023/09/29 08:28:46;;;;;;;6.57;4.20;;;20.30;99.90;;;;;;5090077;28;20205;-78
2023/09/29 08:31:15;;;;;;;6.10;4.50;;;20.20;99.90;;;;;;5112286;28;20201;-78
2023/09/29 08:33:42;;;;;;;5.20;4.20;;;20.30;99.90;;;;;;5096035;28;20224;-79
2023/09/29 08:36:10;;;;;;;8.03;4.30;;;20.70;99.90;;;;;;5081022;28;20252;-76
2023/09/29 08:38:37;;;;;;;5.30;4.13;;;21.30;99.90;;;;;;5057824;28;20190;-76
2023/09/29 08:41:04;;;;;;;5.40;4.50;;;21.60;99.90;;;;;;5091953;28;20194;-76
2023/09/29 08:43:31;;;;;;;7.60;6.50;;;22.00;99.90;;;;;;5068112;28;20705;-76
2023/09/29 08:45:59;;;;;;;5.13;4.47;;;22.20;99.90;;;;;;5077267;28;20255;-76
2023/09/29 08:48:28;;;;;;;5.77;4.50;;;22.20;99.90;;;;;;5091413;28;20205;-76
2023/09/29 08:50:56;;;;;;;4.57;3.90;;;22.00;99.90;;;;;;5076066;28;20202;-76
2023/09/29 08:53:26;;;;;;;5.97;5.37;;;22.00;99.90;;;;;;5106561;28;20422;-78
2023/09/29 08:55:54;;;;;;;4.83;4.00;;;22.00;99.90;;;;;;5104457;28;20245;-78
2023/09/29 08:58:21;;;;;;;6.33;4.83;;;22.20;99.90;;;;;;5086270;28;20223;-78
2023/09/29 09:00:48;;;;;;;6.43;5.37;;;22.40;99.90;;;;;;5105137;28;20198;-77
2023/09/29 09:03:15;;;;;;;6.87;4.20;;;22.30;99.90;;;;;;5076495;28;20220;-76
2023/09/29 09:05:42;;;;;;;7.27;5.30;;;22.70;99.90;;;;;;5083880;28;20220;-80
2023/09/29 09:08:09;;;;;;;6.07;4.53;;;23.10;99.90;;;;;;5072844;28;20229;-78
2023/09/29 09:10:38;;;;;;;8.23;7.40;;;23.10;99.90;;;;;;5074615;28;20194;-82
2023/09/29 09:13:05;;;;;;;9.33;8.37;;;22.90;99.90;;;;;;5087816;28;20222;-79
2023/09/29 09:15:32;;;;;;;6.03;4.57;;;22.70;99.90;;;;;;5079229;28;20693;-77
2023/09/29 09:17:59;;;;;;;5.80;4.20;;;22.70;99.90;;;;;;5097820;28;20198;-78
2023/09/29 09:20:26;;;;;;;6.23;4.20;;;22.90;99.90;;;;;;5095596;28;20186;-78
2023/09/29 09:22:58;;;;;;;6.47;4.20;;;23.50;99.90;;;;;;5080656;28;20232;-77
2023/09/29 09:25:34;;;;;;;8.40;4.70;;;23.80;99.90;;;;;;5079674;28;20261;-78
2023/09/29 09:28:03;;;;;;;6.43;4.93;;;24.10;99.90;;;;;;5077065;28;20197;-78
2023/09/29 09:30:35;;;;;;;6.50;4.33;;;24.20;99.90;;;;;;5094922;28;20655;-78
2023/09/29 09:33:04;;;;;;;5.33;4.83;;;24.60;99.90;;;;;;5094761;28;20805;-79
2023/09/29 09:35:31;;;;;;;10.10;9.30;;;24.90;99.90;;;;;;5094494;28;20251;-78
2023/09/29 09:38:01;;;;;;;6.70;4.50;;;25.20;99.90;;;;;;5082641;28;20213;-78
2023/09/29 09:40:28;;;;;;;5.80;5.10;;;25.50;99.90;;;;;;5083192;28;20654;-77
2023/09/29 09:42:58;;;;;;;7.37;5.10;;;25.80;99.90;;;;;;5104483;28;20201;-77
2023/09/29 09:45:34;;;;;;;6.50;4.20;;;25.90;99.90;;;;;;5089478;28;20201;-79
2023/09/29 09:48:05;;;;;;;9.00;8.20;;;26.00;99.90;;;;;;5100742;28;20193;-79
2023/09/29 09:50:36;;;;;;;5.20;4.30;;;26.10;99.90;;;;;;5101102;28;20598;-77
2023/09/29 09:53:05;;;;;;;9.73;9.00;;;26.10;99.90;;;;;;5112129;28;20217;-77
2023/09/29 09:55:37;;;;;;;7.37;4.63;;;26.20;99.90;;;;;;5111086;28;20208;-79
2023/09/29 09:58:09;;;;;;;7.77;7.07;;;26.30;99.90;;;;;;5088515;28;20661;-78
2023/09/29 10:00:39;;;;;;;5.23;4.20;;;26.40;99.90;;;;;;5112731;28;20468;-78
2023/09/29 10:03:11;;;;;;;5.60;4.80;;;26.50;99.90;;;;;;5114427;28;20251;-77
2023/09/29 10:05:40;;;;;;;10.17;9.37;;;26.30;99.90;;;;;;5094549;28;20288;-78
2023/09/29 10:08:10;;;;;;;9.50;8.70;;;26.40;99.90;;;;;;5099905;28;20581;-79
2023/09/29 10:10:39;;;;;;;6.00;5.50;;;26.50;99.90;;;;;;5091988;28;20664;-77
2023/09/29 10:13:11;;;;;;;6.50;5.90;;;26.60;99.90;;;;;;5110500;28;20243;-77
2023/09/29 10:15:39;;;;;;;6.77;6.27;;;26.60;99.90;;;;;;5110418;28;20201;-78
2023/09/29 10:18:17;;;;;;;6.87;6.37;;;26.70;99.90;;;;;;5094550;28;20197;-78
2023/09/29 10:20:46;;;;;;;8.70;7.90;;;26.80;99.90;;;;;;5091179;28;20297;-78
2023/09/29 10:23:14;;;;;;;8.60;8.00;;;27.00;99.90;;;;;;5089988;28;20688;-78
2023/09/29 10:25:44;;;;;;;9.10;8.50;;;27.00;99.90;;;;;;5089274;28;20628;-77
2023/09/29 10:28:12;;;;;;;9.30;8.60;;;27.10;99.90;;;;;;5110984;28;20204;-79
2023/09/29 10:30:41;;;;;;;5.67;5.23;;;27.20;99.90;;;;;;5109349;28;20738;-79
2023/09/29 10:33:11;;;;;;;5.87;5.27;;;27.20;99.90;;;;;;5116734;28;20221;-78
2023/09/29 10:35:45;;;;;;;4.67;4.07;;;27.20;99.90;;;;;;5117728;28;20646;-77
2023/09/29 10:38:23;;;;;;;4.27;3.87;;;27.20;99.90;;;;;;5090718;28;20212;-78
2023/09/29 10:40:52;;;;;;;5.30;4.80;;;27.10;99.90;;;;;;5097920;28;20203;-78
2023/09/29 10:43:21;;;;;;;8.20;7.60;;;27.10;99.90;;;;;;5110790;28;20220;-78
2023/09/29 10:45:50;;;;;;;8.70;8.10;;;27.10;99.90;;;;;;5098469;28;20266;-78
2023/09/29 10:48:19;;;;;;;9.23;8.53;;;27.10;99.90;;;;;;5068383;28;20240;-76
2023/09/29 10:50:49;;;;;;;8.87;8.27;;;27.10;99.90;;;;;;5074919;28;20755;-77
2023/09/29 10:53:17;;;;;;;9.00;8.33;;;27.00;99.90;;;;;;5100505;28;20276;-76
2023/09/29 10:55:46;;;;;;;8.50;7.90;;;26.90;99.90;;;;;;5076509;28;20273;-76
2023/09/29 10:58:14;;;;;;;9.00;8.20;;;26.90;99.90;;;;;;5082578;28;20204;-77
2023/09/29 11:00:43;;;;;;;8.57;7.93;;;26.80;99.90;;;;;;5065153;28;20194;-76
2023/09/29 11:03:13;;;;;;;7.97;7.47;;;26.80;99.90;;;;;;5074655;28;20619;-76
2023/09/29 11:05:48;;;;;;;9.03;8.27;;;26.70;99.90;;;;;;5091057;28;20565;-76
2023/09/29 11:08:16;;;;;;;8.30;7.70;;;26.70;99.90;;;;;;5068656;28;20210;-81
2023/09/29 11:11:00;;;;;;;8.20;7.60;;;26.70;99.90;;;;;;5071241;28;20682;-78
2023/09/29 11:13:28;;;;;;;8.60;8.00;;;26.60;99.90;;;;;;5065721;28;20719;-76
2023/09/29 11:15:56;;;;;;;7.47;6.90;;;26.70;99.90;;;;;;5087231;28;20217;-76
2023/09/29 11:18:28;;;;;;;3.67;3.37;;;26.60;99.90;;;;;;5093205;28;20194;-76
2023/09/29 11:20:56;;;;;;;3.67;3.37;;;26.60;99.90;;;;;;5063209;28;20661;-76
2023/09/29 11:23:24;;;;;;;3.30;3.00;;;26.70;99.90;;;;;;5088314;28;20263;-76
2023/09/29 11:25:54;;;;;;;4.23;3.40;;;26.60;99.90;;;;;;5089583;28;20201;-76
2023/09/29 11:28:21;;;;;;;4.20;3.33;;;26.50;99.90;;;;;;5082147;28;20186;-76
2023/09/29 11:30:48;;;;;;;5.33;4.27;;;26.50;99.90;;;;;;5086726;28;20248;-76
2023/09/29 11:33:16;;;;;;;6.50;5.93;;;26.50;99.90;;;;;;5072713;28;20227;-76
2023/09/29 11:35:45;;;;;;;8.43;7.67;;;26.50;99.90;;;;;;5084532;28;20195;-75
2023/09/29 11:38:15;;;;;;;7.80;7.30;;;26.50;99.90;;;;;;5089437;28;20186;-76
2023/09/29 11:40:43;;;;;;;3.70;3.40;;;26.50;99.90;;;;;;5074734;28;20205;-76
2023/09/29 11:43:10;;;;;;;5.20;3.10;;;26.40;99.90;;;;;;5092657;28;20214;-76
2023/09/29 11:45:38;;;;;;;4.13;3.73;;;26.40;99.90;;;;;;5074347;28;20217;-75
2023/09/29 11:48:05;;;;;;;4.17;3.27;;;26.40;99.90;;;;;;5069985;28;20564;-76
2023/09/29 11:50:33;;;;;;;4.17;3.53;;;26.40;99.90;;;;;;5068640;28;20229;-76
2023/09/29 11:53:05;;;;;;;6.50;6.00;;;26.50;99.90;;;;;;5096016;28;20209;-76
2023/09/29 11:55:33;;;;;;;7.27;6.67;;;26.50;99.90;;;;;;5095539;28;20277;-75
2023/09/29 11:58:00;;;;;;;7.27;6.57;;;26.30;99.90;;;;;;5092205;28;20198;-75
2023/09/29 12:00:27;;;;;;;9.67;8.20;;;26.30;99.90;;;;;;5092361;28;20208;-76
2023/09/29 12:02:54;;;;;;;8.83;7.90;;;26.40;99.90;;;;;;5072996;28;20230;-76
2023/09/29 12:05:21;;;;;;;8.63;7.97;;;26.40;99.90;;;;;;5092356;28;20198;-75
2023/09/29 12:07:49;;;;;;;8.17;7.57;;;26.40;99.90;;;;;;5073574;28;20578;-76
2023/09/29 12:10:17;;;;;;;8.13;7.53;;;26.40;99.90;;;;;;5092286;28;20204;-76
2023/09/29 12:12:44;;;;;;;8.63;7.83;;;26.50;99.90;;;;;;5091820;28;20213;-76
2023/09/29 12:15:13;;;;;;;8.00;7.30;;;26.50;99.90;;;;;;5073753;28;20221;-76
2023/09/29 12:17:39;;;;;;;8.40;7.80;;;26.50;99.90;;;;;;5086157;28;20217;-79
2023/09/29 12:20:09;;;;;;;8.50;7.73;;;26.50;99.90;;;;;;5080244;28;20197;-78
2023/09/29 12:22:38;;;;;;;7.93;7.33;;;26.50;99.90;;;;;;5096571;28;20260;-78
2023/09/29 12:25:07;;;;;;;7.90;7.30;;;26.60;99.90;;;;;;5075650;28;20186;-78
2023/09/29 12:27:35;;;;;;;8.20;7.60;;;26.60;99.90;;;;;;5093782;28;20680;-77
2023/09/29 12:30:03;;;;;;;7.77;7.17;;;26.60;99.90;;;;;;5093857;28;20194;-78
2023/09/29 12:32:30;;;;;;;8.80;8.00;;;26.50;99.90;;;;;;5079395;28;20620;-78
2023/09/29 12:34:57;;;;;;;7.50;6.90;;;26.50;99.90;;;;;;5075797;28;20236;-78
2023/09/29 12:37:24;;;;;;;7.83;7.30;;;26.40;99.90;;;;;;5073323;28;20198;-79
2023/09/29 12:39:50;;;;;;;7.87;7.33;;;26.40;99.90;;;;;;5092542;28;20194;-77
2023/09/29 12:42:17;;;;;;;8.60;7.90;;;26.40;99.90;;;;;;5076715;28;20221;-77
2023/09/29 12:44:47;;;;;;;8.17;7.53;;;26.40;99.90;;;;;;5100537;28;20193;-77
2023/09/29 12:47:14;;;;;;;8.10;7.50;;;26.40;99.90;;;;;;5076900;28;20189;-77
2023/09/29 12:49:40;;;;;;;8.70;8.07;;;26.50;99.90;;;;;;5086506;28;20565;-78